createdAt,value
2018-11-22T00:01:53.434Z,3.70
2018-11-22T00:04:23.464Z,3.70
2018-11-22T00:06:53.443Z,3.70
2018-11-22T00:09:23.473Z,3.70
2018-11-22T00:11:53.439Z,3.70
2018-11-22T00:14:23.483Z,3.70
2018-11-22T00:16:53.462Z,3.70
2018-11-22T00:19:23.495Z,3.70
2018-11-22T00:21:53.459Z,3.70
2018-11-22T00:24:23.391Z,3.70
2018-11-22T00:26:53.414Z,3.70
2018-11-22T00:29:23.355Z,3.70
2018-11-22T00:31:53.429Z,3.70
2018-11-22T00:34:23.624Z,3.60
2018-11-22T00:36:53.564Z,3.60
2018-11-22T00:39:23.514Z,3.60
2018-11-22T00:41:53.506Z,3.60
2018-11-22T00:44:23.585Z,3.50
2018-11-22T00:46:53.667Z,3.50
2018-11-22T00:49:23.622Z,3.50
2018-11-22T00:51:53.590Z,3.50
2018-11-22T00:54:23.556Z,3.40
2018-11-22T00:56:53.643Z,3.40
2018-11-22T00:59:23.695Z,3.40
2018-11-22T01:01:53.664Z,3.40
2018-11-22T01:04:23.622Z,3.30
2018-11-22T01:06:53.579Z,3.30
2018-11-22T01:09:23.564Z,3.30
2018-11-22T01:11:53.640Z,3.30
2018-11-22T01:14:23.689Z,3.30
2018-11-22T01:16:53.771Z,3.30
2018-11-22T01:19:23.937Z,3.30
2018-11-22T01:21:54.119Z,3.30
2018-11-22T01:24:24.392Z,3.30
2018-11-22T01:26:54.370Z,3.30
2018-11-22T01:29:24.356Z,3.30
2018-11-22T01:31:54.476Z,3.30
2018-11-22T01:34:24.582Z,3.20
2018-11-22T01:36:54.615Z,3.20
2018-11-22T01:39:24.654Z,3.30
2018-11-22T01:41:54.836Z,3.20
2018-11-22T01:44:24.896Z,3.30
2018-11-22T01:46:55.015Z,3.20
2018-11-22T01:49:25.004Z,3.30
2018-11-22T01:51:55.095Z,3.20
2018-11-22T01:54:25.174Z,3.30
2018-11-22T01:56:55.583Z,3.30
2018-11-22T01:59:25.667Z,3.30
2018-11-22T02:01:55.765Z,3.30
2018-11-22T02:04:25.721Z,3.30
2018-11-22T02:06:55.831Z,3.30
2018-11-22T02:09:25.909Z,3.30
2018-11-22T02:11:55.901Z,3.30
2018-11-22T02:14:25.841Z,3.30
2018-11-22T02:16:55.811Z,3.30
2018-11-22T02:19:25.853Z,3.20
2018-11-22T02:21:55.805Z,3.20
2018-11-22T02:24:25.747Z,3.20
2018-11-22T02:26:55.795Z,3.20
2018-11-22T02:29:25.846Z,3.20
2018-11-22T02:31:55.818Z,3.20
2018-11-22T02:34:26.030Z,3.20
2018-11-22T02:36:56.006Z,3.20
2018-11-22T02:39:26.040Z,3.20
2018-11-22T02:41:56.011Z,3.20
2018-11-22T02:44:25.962Z,3.20
2018-11-22T02:46:55.945Z,3.20
2018-11-22T02:49:25.888Z,3.30
2018-11-22T02:51:55.862Z,3.30
2018-11-22T02:54:25.903Z,3.30
2018-11-22T02:56:55.997Z,3.30
2018-11-22T02:59:25.925Z,3.30
2018-11-22T03:01:56.018Z,3.40
2018-11-22T03:04:25.974Z,3.30
2018-11-22T03:06:56.034Z,3.30
2018-11-22T03:09:25.970Z,3.40
2018-11-22T03:11:56.270Z,3.30
2018-11-22T03:14:26.339Z,3.30
2018-11-22T03:16:56.341Z,3.30
2018-11-22T03:19:26.330Z,3.30
2018-11-22T03:21:56.294Z,3.30
2018-11-22T03:24:26.265Z,3.30
2018-11-22T03:26:56.217Z,3.30
2018-11-22T03:29:26.212Z,3.30
2018-11-22T03:31:56.291Z,3.30
2018-11-22T03:34:26.251Z,3.30
2018-11-22T03:36:56.241Z,3.20
2018-11-22T03:39:26.196Z,3.20
2018-11-22T03:41:56.478Z,3.20
2018-11-22T03:44:26.432Z,3.20
2018-11-22T03:46:56.559Z,3.20
2018-11-22T03:49:26.637Z,3.20
2018-11-22T03:51:56.738Z,3.20
2018-11-22T03:54:26.686Z,3.20
2018-11-22T03:56:56.677Z,3.20
2018-11-22T03:59:26.634Z,3.20
2018-11-22T04:01:56.698Z,3.20
2018-11-22T04:04:26.660Z,3.20
2018-11-22T04:06:56.749Z,3.20
2018-11-22T04:09:26.733Z,3.20
2018-11-22T04:11:56.708Z,3.20
2018-11-22T04:14:26.718Z,3.20
2018-11-22T04:16:56.697Z,3.20
2018-11-22T04:19:26.791Z,3.20
2018-11-22T04:21:56.880Z,3.10
2018-11-22T04:24:26.925Z,3.10
2018-11-22T04:26:56.911Z,3.10
2018-11-22T04:29:26.989Z,3.10
2018-11-22T04:31:57.220Z,3.10
2018-11-22T04:34:27.173Z,3.10
2018-11-22T04:36:57.241Z,3.00
2018-11-22T04:39:27.342Z,3.10
2018-11-22T04:41:57.345Z,3.00
2018-11-22T04:44:27.298Z,3.00
2018-11-22T04:46:57.365Z,3.00
2018-11-22T04:49:27.442Z,3.00
2018-11-22T04:51:57.398Z,3.00
2018-11-22T04:54:27.396Z,3.00
2018-11-22T04:56:57.454Z,3.00
2018-11-22T04:59:27.539Z,3.00
2018-11-22T05:01:57.491Z,3.00
2018-11-22T05:04:30.704Z,3.00
2018-11-22T05:06:57.601Z,3.00
2018-11-22T05:09:27.593Z,2.90
2018-11-22T05:11:57.587Z,2.90
2018-11-22T05:14:27.601Z,2.90
2018-11-22T05:16:57.550Z,2.90
2018-11-22T05:19:27.535Z,2.90
2018-11-22T05:21:57.602Z,2.90
2018-11-22T05:24:27.725Z,3.00
2018-11-22T05:26:57.772Z,3.00
2018-11-22T05:29:27.859Z,3.00
2018-11-22T05:31:57.860Z,3.00
2018-11-22T05:34:27.864Z,3.00
2018-11-22T05:36:57.927Z,3.00
2018-11-22T05:39:27.931Z,3.00
2018-11-22T05:42:00.828Z,3.00
2018-11-22T05:44:30.805Z,3.00
2018-11-22T05:47:02.653Z,2.90
2018-11-22T05:49:30.863Z,2.90
2018-11-22T05:52:01.026Z,3.00
2018-11-22T05:54:31.001Z,2.90
2018-11-22T05:57:01.005Z,2.90
2018-11-22T05:59:30.996Z,2.90
2018-11-22T06:02:01.053Z,2.90
2018-11-22T06:04:31.045Z,2.90
2018-11-22T06:07:01.073Z,2.80
2018-11-22T06:09:31.053Z,2.80
2018-11-22T06:12:01.163Z,2.80
2018-11-22T06:14:31.261Z,2.80
2018-11-22T06:17:01.334Z,2.70
2018-11-22T06:19:31.409Z,2.60
2018-11-22T06:22:01.540Z,2.60
2018-11-22T06:24:31.541Z,2.50
2018-11-22T06:27:01.537Z,2.40
2018-11-22T06:29:31.594Z,2.30
2018-11-22T06:32:01.600Z,2.20
2018-11-22T06:34:31.707Z,2.10
2018-11-22T06:37:01.690Z,2.00
2018-11-22T06:39:31.778Z,1.90
2018-11-22T06:42:02.538Z,1.80
2018-11-22T06:44:32.524Z,1.80
2018-11-22T06:47:02.571Z,1.90
2018-11-22T06:49:32.545Z,1.90
2018-11-22T06:52:02.537Z,1.90
2018-11-22T06:54:32.624Z,2.00
2018-11-22T06:57:02.576Z,2.00
2018-11-22T06:59:32.632Z,2.00
2018-11-22T07:02:02.748Z,2.00
2018-11-22T07:04:32.757Z,2.00
2018-11-22T07:07:02.870Z,2.10
2018-11-22T07:09:32.861Z,2.10
2018-11-22T07:12:02.821Z,2.10
2018-11-22T07:14:32.973Z,2.20
2018-11-22T07:17:03.341Z,2.20
2018-11-22T07:19:33.815Z,2.20
2018-11-22T07:22:03.840Z,2.20
2018-11-22T07:24:33.817Z,2.30
2018-11-22T07:27:03.773Z,2.40
2018-11-22T07:29:33.785Z,2.50
2018-11-22T07:32:03.741Z,2.70
2018-11-22T07:34:33.737Z,2.80
2018-11-22T07:37:06.713Z,2.90
2018-11-22T07:39:37.095Z,3.00
2018-11-22T07:42:07.839Z,3.20
2018-11-22T07:44:37.789Z,3.30
2018-11-22T07:47:07.782Z,3.40
2018-11-22T07:49:37.766Z,3.50
2018-11-22T07:52:07.774Z,3.50
2018-11-22T07:54:37.868Z,3.60
2018-11-22T07:57:07.991Z,3.70
2018-11-22T07:59:38.088Z,3.80
2018-11-22T08:02:08.050Z,3.90
2018-11-22T08:04:38.138Z,4.00
2018-11-22T08:07:08.203Z,4.10
2018-11-22T08:09:38.221Z,4.20
2018-11-22T08:12:12.186Z,4.30
2018-11-22T08:14:38.226Z,4.40
2018-11-22T08:17:08.217Z,4.50
2018-11-22T08:19:38.336Z,4.60
2018-11-22T08:22:08.281Z,4.70
2018-11-22T08:24:38.264Z,4.80
2018-11-22T08:27:08.372Z,4.80
2018-11-22T08:29:38.371Z,4.90
2018-11-22T08:32:08.568Z,5.00
2018-11-22T08:34:38.611Z,5.10
2018-11-22T08:37:08.666Z,5.10
2018-11-22T08:39:38.695Z,5.10
2018-11-22T08:42:08.762Z,5.20
2018-11-22T08:44:38.844Z,5.20
2018-11-22T08:47:12.209Z,5.30
2018-11-22T08:49:39.353Z,5.30
2018-11-22T08:52:09.634Z,5.40
2018-11-22T08:54:39.717Z,5.50
2018-11-22T08:57:09.673Z,5.50
2018-11-22T08:59:40.031Z,5.60
2018-11-22T09:02:10.420Z,5.70
2018-11-22T09:04:40.506Z,5.70
2018-11-22T09:07:10.558Z,5.80
2018-11-22T09:09:40.648Z,5.80
2018-11-22T09:12:10.705Z,5.90
2018-11-22T09:14:40.788Z,6.00
2018-11-22T09:17:10.880Z,6.00
2018-11-22T09:19:40.956Z,6.20
2018-11-22T12:16:47.392Z,19.00
2018-11-22T12:19:16.065Z,19.40
2018-11-22T12:21:44.919Z,19.60
2018-11-22T12:24:13.604Z,19.80
2018-11-22T12:26:42.543Z,20.00
2018-11-22T12:29:13.233Z,20.20
2018-11-22T12:31:41.196Z,20.40
2018-11-22T12:34:15.828Z,20.60
2018-11-22T12:36:49.809Z,20.80
2018-11-22T12:39:18.471Z,21.10
2018-11-22T12:41:47.077Z,21.30
2018-11-22T12:44:15.691Z,21.50
2018-11-22T12:46:44.237Z,21.60
2018-11-22T12:49:12.750Z,21.80
2018-11-22T12:51:43.055Z,21.90
2018-11-22T12:54:11.633Z,22.10
2018-11-22T12:56:40.183Z,22.20
2018-11-22T12:59:08.924Z,22.40
2018-11-22T13:01:37.454Z,22.50
2018-11-22T13:04:06.233Z,22.50
2018-11-22T13:06:35.023Z,22.60
2018-11-22T13:09:03.756Z,22.60
2018-11-22T13:11:32.279Z,22.80
2018-11-22T13:14:00.899Z,22.90
2018-11-22T13:16:29.427Z,22.90
2018-11-22T13:18:59.362Z,22.90
2018-11-22T13:21:26.517Z,22.90
2018-11-22T13:23:55.103Z,22.80
2018-11-22T13:26:23.620Z,22.70
2018-11-22T13:28:52.166Z,22.80
2018-11-22T13:31:20.680Z,22.80
2018-11-22T13:33:49.232Z,22.80
2018-11-22T13:36:17.737Z,22.70
2018-11-22T13:38:46.308Z,22.60
2018-11-22T13:41:15.011Z,22.50
2018-11-22T13:43:43.617Z,22.50
2018-11-22T13:46:12.154Z,22.40
2018-11-22T13:48:40.711Z,22.50
2018-11-22T13:51:09.227Z,22.60
2018-11-22T13:53:38.686Z,22.60
2018-11-22T13:56:07.209Z,22.60
2018-11-22T13:58:35.748Z,22.60
2018-11-22T14:01:04.304Z,22.50
2018-11-22T14:03:32.855Z,22.50
2018-11-22T14:06:01.378Z,22.40
2018-11-22T14:08:29.937Z,22.40
2018-11-22T14:10:58.729Z,22.30
2018-11-22T14:13:27.051Z,22.20
2018-11-22T14:15:55.571Z,21.80
2018-11-22T14:18:24.116Z,21.30
2018-11-22T14:20:52.652Z,21.10
2018-11-22T14:23:21.151Z,20.80
2018-11-22T14:25:49.701Z,20.70
2018-11-22T14:28:18.211Z,20.70
2018-11-22T14:30:46.840Z,20.50
2018-11-22T14:33:15.389Z,20.40
2018-11-22T14:35:43.911Z,20.30
2018-11-22T14:38:12.481Z,20.10
2018-11-22T14:40:40.993Z,19.90
2018-11-22T14:43:09.550Z,19.70
2018-11-22T14:45:38.067Z,19.50
2018-11-22T14:48:06.656Z,19.40
2018-11-22T14:50:42.021Z,19.20
2018-11-22T14:53:16.588Z,19.10
2018-11-22T14:55:45.126Z,18.80
2018-11-22T14:58:13.665Z,18.50
2018-11-22T15:00:42.216Z,18.10
2018-11-22T15:03:10.882Z,17.40
2018-11-22T15:05:39.442Z,16.50
2018-11-22T15:08:08.029Z,15.60
2018-11-22T15:10:36.556Z,14.70
2018-11-22T15:13:06.096Z,13.90
2018-11-22T15:15:34.634Z,13.20
2018-11-22T15:18:03.203Z,12.60
2018-11-22T15:20:31.755Z,12.10
2018-11-22T15:23:00.332Z,11.60
2018-11-22T15:25:29.846Z,11.20
2018-11-22T15:27:58.412Z,10.80
2018-11-22T15:30:28.341Z,10.50
2018-11-22T15:32:57.374Z,10.20
2018-11-22T15:35:27.476Z,9.90
2018-11-22T15:37:56.035Z,9.60
2018-11-22T15:40:25.495Z,9.40
2018-11-22T15:42:55.615Z,9.10
2018-11-22T15:45:25.608Z,8.90
2018-11-22T15:47:54.125Z,8.60
2018-11-22T15:50:23.960Z,8.40
2018-11-22T15:52:52.597Z,8.20
2018-11-22T15:55:21.717Z,8.00
2018-11-22T15:57:51.516Z,7.80
2018-11-22T16:00:22.841Z,7.60
2018-11-22T16:02:51.968Z,7.50
2018-11-22T16:05:21.211Z,7.30
2018-11-22T16:07:49.861Z,7.10
2018-11-22T16:10:26.328Z,7.00
2018-11-22T16:12:50.599Z,6.80
2018-11-22T16:15:24.258Z,6.70
2018-11-22T16:17:52.766Z,6.60
2018-11-22T16:20:21.329Z,6.40
2018-11-22T16:22:49.879Z,6.30
2018-11-22T16:25:18.435Z,6.20
2018-11-22T16:27:46.984Z,6.10
2018-11-22T16:30:18.758Z,6.00
2018-11-22T16:32:47.408Z,5.90
2018-11-22T16:35:17.954Z,5.80
2018-11-22T16:37:46.775Z,5.70
2018-11-22T16:40:16.786Z,5.60
2018-11-22T16:42:46.706Z,5.50
2018-11-22T16:45:19.973Z,5.40
2018-11-22T16:47:48.536Z,5.30
2018-11-22T16:50:18.632Z,5.30
2018-11-22T16:52:47.202Z,5.20
2018-11-22T16:55:16.696Z,5.20
2018-11-22T16:57:46.818Z,5.10
2018-11-22T17:00:18.115Z,5.10
2018-11-22T17:02:47.659Z,5.00
2018-11-22T17:05:16.985Z,5.00
2018-11-22T17:07:46.275Z,4.90
2018-11-22T17:10:20.241Z,4.90
2018-11-22T17:12:49.660Z,4.80
2018-11-22T17:15:19.740Z,4.80
2018-11-22T17:17:48.701Z,4.70
2018-11-22T17:20:18.258Z,4.70
2018-11-22T17:22:47.546Z,4.60
2018-11-22T17:25:18.696Z,4.50
2018-11-22T17:27:48.171Z,4.40
2018-11-22T17:30:18.963Z,4.40
2018-11-22T17:32:47.601Z,4.30
2018-11-22T17:35:17.637Z,4.30
2018-11-22T17:37:46.171Z,4.20
2018-11-22T17:40:17.330Z,4.20
2018-11-22T17:42:46.039Z,4.10
2018-11-22T17:45:16.113Z,4.10
2018-11-22T17:47:44.778Z,4.00
2018-11-22T17:50:15.335Z,4.00
2018-11-22T17:52:44.508Z,4.00
2018-11-22T17:55:17.506Z,4.00
2018-11-22T17:57:46.550Z,3.90
2018-11-22T18:00:19.513Z,3.90
2018-11-22T18:02:49.897Z,3.90
2018-11-22T18:05:19.082Z,3.80
2018-11-22T18:07:47.682Z,3.80
2018-11-22T18:10:17.885Z,3.70
2018-11-22T18:12:47.292Z,3.70
2018-11-22T18:15:16.905Z,3.60
2018-11-22T18:17:45.621Z,3.60
2018-11-22T18:20:19.603Z,3.50
2018-11-22T18:22:49.101Z,3.40
2018-11-22T18:25:21.110Z,3.40
2018-11-22T18:27:50.022Z,3.40
2018-11-22T18:30:20.084Z,3.30
2018-11-22T18:32:50.250Z,3.30
2018-11-22T18:35:18.827Z,3.30
2018-11-22T18:37:47.383Z,3.30
2018-11-22T18:40:17.685Z,3.30
2018-11-22T18:42:47.294Z,3.30
2018-11-22T18:45:17.309Z,3.30
2018-11-22T18:47:46.594Z,3.40
2018-11-22T18:50:17.649Z,3.40
2018-11-22T18:52:46.637Z,3.40
2018-11-22T18:55:15.260Z,3.40
2018-11-22T18:57:44.951Z,3.30
2018-11-22T19:00:28.892Z,3.20
2018-11-22T19:02:59.021Z,3.10
2018-11-22T19:05:28.001Z,3.00
2018-11-22T19:07:57.405Z,2.80
2018-11-22T19:10:27.467Z,2.70
2018-11-22T19:12:57.694Z,2.60
2018-11-22T19:15:27.729Z,2.50
2018-11-22T19:17:56.265Z,2.40
2018-11-22T19:20:28.137Z,2.40
2018-11-22T19:22:57.412Z,2.30
2018-11-22T19:25:25.951Z,2.20
2018-11-22T19:27:55.160Z,2.20
2018-11-22T19:30:25.127Z,2.10
2018-11-22T19:32:54.887Z,2.10
2018-11-22T19:35:25.787Z,2.00
2018-11-22T19:37:54.354Z,2.00
2018-11-22T19:40:26.161Z,2.00
2018-11-22T19:42:56.129Z,1.90
2018-11-22T19:45:26.229Z,1.90
2018-11-22T19:47:55.109Z,1.80
2018-11-22T19:50:24.908Z,1.80
2018-11-22T19:52:54.082Z,1.70
2018-11-22T19:55:24.151Z,1.70
2018-11-22T19:57:54.338Z,1.70
2018-11-22T20:00:23.876Z,1.60
2018-11-22T20:02:53.367Z,1.60
2018-11-22T20:05:23.019Z,1.60
2018-11-22T20:07:53.138Z,1.50
2018-11-22T20:10:24.051Z,1.50
2018-11-22T20:12:52.856Z,1.50
2018-11-22T20:15:21.379Z,1.40
2018-11-22T20:17:50.717Z,1.40
2018-11-22T20:20:20.061Z,1.40
2018-11-22T20:22:48.609Z,1.30
2018-11-22T20:25:17.150Z,1.30
2018-11-22T20:27:45.819Z,1.30
2018-11-22T20:30:17.047Z,1.30
2018-11-22T20:32:46.261Z,1.20
2018-11-22T20:35:16.382Z,1.20
2018-11-22T20:37:45.688Z,1.20
2018-11-22T20:40:15.694Z,1.20
2018-11-22T20:42:44.426Z,1.20
2018-11-22T20:45:14.751Z,1.10
2018-11-22T20:47:44.147Z,1.10
2018-11-22T20:50:15.075Z,1.10
2018-11-22T20:52:43.639Z,1.10
2018-11-22T20:55:15.716Z,1.10
2018-11-22T20:57:45.065Z,1.00
2018-11-22T21:00:16.777Z,1.00
2018-11-22T21:02:45.591Z,0.90
2018-11-22T21:05:14.806Z,0.90
2018-11-22T21:07:43.896Z,0.90
2018-11-22T21:10:14.174Z,0.90
2018-11-22T21:12:42.788Z,0.90
2018-11-22T21:15:14.416Z,0.90
2018-11-22T21:17:43.389Z,0.90
2018-11-22T21:20:14.109Z,0.90
2018-11-22T21:22:42.879Z,0.80
2018-11-22T21:25:13.460Z,0.80
2018-11-22T21:27:42.080Z,0.80
2018-11-22T21:30:14.947Z,0.80
2018-11-22T21:32:44.286Z,0.70
2018-11-22T21:35:12.866Z,0.70
2018-11-22T21:37:41.483Z,0.70
2018-11-22T21:40:10.670Z,0.60
2018-11-22T21:42:39.721Z,0.60
2018-11-22T21:45:11.487Z,0.60
2018-11-22T21:47:40.293Z,0.50
2018-11-22T21:50:10.339Z,0.50
2018-11-22T21:52:38.950Z,0.50
2018-11-22T21:55:10.776Z,0.50
2018-11-22T21:57:40.325Z,0.40
2018-11-22T22:00:15.459Z,0.40
2018-11-22T22:02:44.470Z,0.40
2018-11-22T22:05:13.023Z,0.40
2018-11-22T22:07:42.087Z,0.30
2018-11-22T22:10:10.837Z,0.30
2018-11-22T22:12:40.213Z,0.30
2018-11-22T22:15:12.820Z,0.30
2018-11-22T22:17:42.023Z,0.20
2018-11-22T22:20:13.220Z,0.30
2018-11-22T22:22:42.221Z,0.20
2018-11-22T22:25:13.219Z,0.20
2018-11-22T22:27:42.224Z,0.20
2018-11-22T22:30:14.302Z,0.20
2018-11-22T22:32:43.675Z,0.20
2018-11-22T22:35:12.253Z,0.20
2018-11-22T22:37:41.433Z,0.10
2018-11-22T22:40:13.635Z,0.10
2018-11-22T22:42:43.649Z,0.10
2018-11-22T22:45:13.119Z,0.10
2018-11-22T22:47:42.154Z,0.10
2018-11-22T22:50:13.512Z,0.10
2018-11-22T22:52:42.035Z,0.10
2018-11-22T22:55:11.568Z,0.10
2018-11-22T22:57:40.616Z,0.10
2018-11-22T23:00:19.399Z,0.00
2018-11-22T23:02:50.374Z,0.00
2018-11-22T23:05:19.207Z,0.00
2018-11-22T23:07:47.917Z,0.00
2018-11-22T23:10:17.557Z,0.00
2018-11-22T23:12:46.247Z,0.00
2018-11-22T23:15:16.022Z,-0.10
2018-11-22T23:17:44.822Z,-0.10
2018-11-22T23:20:16.012Z,-0.10
2018-11-22T23:22:45.200Z,-0.20
2018-11-22T23:25:14.577Z,-0.20
2018-11-22T23:27:43.101Z,-0.20
2018-11-22T23:30:17.486Z,-0.20
2018-11-22T23:32:47.721Z,-0.20
2018-11-22T23:35:19.824Z,-0.20
2018-11-22T23:37:51.118Z,-0.30
2018-11-22T23:40:25.747Z,-0.30
2018-11-22T23:42:56.866Z,-0.30
2018-11-22T23:45:29.863Z,-0.30
2018-11-22T23:48:01.530Z,-0.40
2018-11-22T23:50:33.426Z,-0.40
2018-11-22T23:53:06.311Z,-0.40
2018-11-22T23:55:37.043Z,-0.40
2018-11-22T23:58:07.983Z,-0.40
